createdAt,value
2019-03-19T00:01:41.575Z,101028.86
2019-03-19T00:04:11.499Z,101030.85
2019-03-19T00:06:41.261Z,101033.81
2019-03-19T00:09:11.019Z,101037.78
2019-03-19T00:11:40.807Z,101033.91
2019-03-19T00:14:10.704Z,101021.41
2019-03-19T00:16:40.664Z,101030.40
2019-03-19T00:19:10.425Z,101022.88
2019-03-19T00:21:40.347Z,101029.78
2019-03-19T00:24:10.267Z,101019.14
2019-03-19T00:26:40.083Z,101020.88
2019-03-19T00:29:10.029Z,101020.53
2019-03-19T00:31:39.988Z,101017.48
2019-03-19T00:34:09.852Z,101010.98
2019-03-19T00:36:40.672Z,101013.86
2019-03-19T00:39:10.632Z,101004.88
2019-03-19T00:41:40.404Z,101007.78
2019-03-19T00:44:10.313Z,101000.25
2019-03-19T00:46:40.103Z,101000.86
2019-03-19T00:49:09.977Z,100996.66
2019-03-19T00:51:39.762Z,101001.00
2019-03-19T00:54:09.618Z,100998.20
2019-03-19T00:56:39.516Z,100994.94
2019-03-19T00:59:09.308Z,100995.39
2019-03-19T01:01:39.171Z,101003.22
2019-03-19T01:04:08.931Z,101006.13
2019-03-19T01:06:38.771Z,101007.89
2019-03-19T01:09:08.953Z,101003.45
2019-03-19T01:11:38.686Z,101005.89
2019-03-19T01:14:08.528Z,101002.30
2019-03-19T01:16:38.252Z,101000.17
2019-03-19T01:19:08.131Z,100997.13
2019-03-19T01:21:37.989Z,100996.89
2019-03-19T01:24:07.757Z,100989.58
2019-03-19T01:26:37.684Z,100990.02
2019-03-19T01:29:07.703Z,100990.54
2019-03-19T01:31:37.526Z,100988.34
2019-03-19T01:34:07.331Z,100985.36
2019-03-19T01:36:37.078Z,100981.42
2019-03-19T01:39:07.896Z,100986.37
2019-03-19T01:41:37.686Z,100987.50
2019-03-19T01:44:07.454Z,100984.85
2019-03-19T01:46:37.111Z,100998.05
2019-03-19T01:49:07.052Z,100994.25
2019-03-19T01:51:36.882Z,100992.84
2019-03-19T01:54:06.662Z,101003.91
2019-03-19T01:56:36.365Z,101004.59
2019-03-19T01:59:06.363Z,101000.15
2019-03-19T02:01:35.997Z,101002.73
2019-03-19T02:04:05.816Z,100997.66
2019-03-19T02:06:35.569Z,101008.90
2019-03-19T02:09:07.266Z,101005.41
2019-03-19T02:11:38.403Z,101011.97
2019-03-19T02:14:08.446Z,101009.34
2019-03-19T02:16:38.159Z,101010.88
2019-03-19T02:19:07.973Z,101013.02
2019-03-19T02:21:37.953Z,101010.76
2019-03-19T02:24:07.700Z,101014.23
2019-03-19T02:26:37.424Z,101006.46
2019-03-19T02:29:07.303Z,101011.55
2019-03-19T02:31:37.049Z,101013.63
2019-03-19T02:34:07.000Z,101011.52
2019-03-19T02:36:36.808Z,101012.02
2019-03-19T02:39:08.149Z,101019.63
2019-03-19T02:41:37.985Z,101016.71
2019-03-19T02:44:07.760Z,101012.92
2019-03-19T02:46:37.703Z,101015.75
2019-03-19T02:49:07.422Z,101025.44
2019-03-19T02:51:37.320Z,101025.44
2019-03-19T02:54:07.035Z,101026.09
2019-03-19T02:56:36.897Z,101030.28
2019-03-19T02:59:06.651Z,101030.07
2019-03-19T03:01:36.491Z,101028.38
2019-03-19T03:04:06.097Z,101038.00
2019-03-19T03:06:35.976Z,101036.41
2019-03-19T03:09:07.607Z,101030.84
2019-03-19T03:11:37.497Z,101034.63
2019-03-19T03:14:07.376Z,101026.56
2019-03-19T03:16:37.474Z,101027.81
2019-03-19T03:19:07.430Z,101020.11
2019-03-19T03:21:37.341Z,101028.95
2019-03-19T03:24:07.084Z,101028.98
2019-03-19T03:26:47.846Z,101038.03
2019-03-19T03:29:08.414Z,101036.23
2019-03-19T03:31:38.163Z,101034.00
2019-03-19T03:34:07.830Z,101034.52
2019-03-19T03:36:37.555Z,101035.96
2019-03-19T03:39:08.865Z,101037.62
2019-03-19T03:41:38.601Z,101039.16
2019-03-19T03:44:08.244Z,101043.68
2019-03-19T03:46:38.206Z,101048.60
2019-03-19T03:49:07.946Z,101047.13
2019-03-19T03:51:37.664Z,101047.91
2019-03-19T03:54:07.578Z,101045.52
2019-03-19T03:56:37.416Z,101054.16
2019-03-19T03:59:07.105Z,101043.44
2019-03-19T04:01:36.865Z,101055.95
2019-03-19T04:04:06.642Z,101059.01
2019-03-19T04:06:36.615Z,101059.19
2019-03-19T04:09:09.358Z,101062.03
2019-03-19T04:11:39.476Z,101063.21
2019-03-19T04:14:09.204Z,101076.25
2019-03-19T04:16:38.882Z,101071.48
2019-03-19T04:19:08.578Z,101072.77
2019-03-19T04:21:38.336Z,101071.77
2019-03-19T04:24:08.238Z,101079.98
2019-03-19T04:26:38.056Z,101076.05
2019-03-19T04:29:07.889Z,101083.58
2019-03-19T04:31:37.655Z,101083.88
2019-03-19T04:34:07.593Z,101088.42
2019-03-19T04:36:37.449Z,101086.66
2019-03-19T04:39:08.756Z,101093.14
2019-03-19T04:41:40.314Z,101086.31
2019-03-19T04:44:10.021Z,101098.06
2019-03-19T04:46:39.824Z,101099.88
2019-03-19T04:49:09.794Z,101103.75
2019-03-19T04:51:39.640Z,101109.70
2019-03-19T04:54:09.491Z,101111.12
2019-03-19T04:56:39.451Z,101106.51
2019-03-19T04:59:09.094Z,101115.67
2019-03-19T05:01:38.824Z,101113.84
2019-03-19T05:04:08.589Z,101121.28
2019-03-19T05:06:38.233Z,101125.08
2019-03-19T05:09:09.297Z,101129.09
2019-03-19T05:11:39.359Z,101127.70
2019-03-19T05:14:09.136Z,101138.05
2019-03-19T05:16:38.927Z,101141.68
2019-03-19T05:19:08.687Z,101144.41
2019-03-19T05:21:38.574Z,101149.47
2019-03-19T05:24:08.277Z,101147.19
2019-03-19T05:26:38.141Z,101147.05
2019-03-19T05:29:08.122Z,101144.22
2019-03-19T05:31:37.934Z,101148.28
2019-03-19T05:34:07.781Z,101157.70
2019-03-19T05:36:37.538Z,101147.98
2019-03-19T05:39:08.386Z,101152.39
2019-03-19T05:41:38.138Z,101153.69
2019-03-19T05:44:08.011Z,101152.87
2019-03-19T05:46:37.724Z,101152.89
2019-03-19T05:49:07.576Z,101153.22
2019-03-19T05:51:37.350Z,101148.57
2019-03-19T05:54:07.284Z,101148.89
2019-03-19T05:56:37.028Z,101148.86
2019-03-19T05:59:06.796Z,101148.58
2019-03-19T06:01:36.701Z,101152.06
2019-03-19T06:04:06.362Z,101146.70
2019-03-19T06:06:36.200Z,101154.90
2019-03-19T06:09:08.557Z,101151.92
2019-03-19T06:11:38.319Z,101150.84
2019-03-19T06:14:08.098Z,101162.12
2019-03-19T06:16:37.746Z,101175.42
2019-03-19T06:19:07.579Z,101171.59
2019-03-19T06:21:37.547Z,101177.39
2019-03-19T06:24:07.414Z,101180.22
2019-03-19T06:26:37.371Z,101171.95
2019-03-19T06:29:07.245Z,101169.63
2019-03-19T06:31:37.163Z,101166.86
2019-03-19T06:34:07.094Z,101169.05
2019-03-19T06:36:37.024Z,101158.69
2019-03-19T06:39:09.167Z,101160.75
2019-03-19T06:41:39.103Z,101162.59
2019-03-19T06:44:10.308Z,101164.09
2019-03-19T06:46:39.944Z,101159.97
2019-03-19T06:49:09.902Z,101161.36
2019-03-19T06:51:39.754Z,101162.26
2019-03-19T06:54:09.671Z,101171.06
2019-03-19T06:56:39.690Z,101168.38
2019-03-19T06:59:09.513Z,101168.91
2019-03-19T07:01:39.309Z,101178.70
2019-03-19T07:04:10.407Z,101148.89
2019-03-19T07:06:40.173Z,101183.84
2019-03-19T07:09:10.398Z,101176.27
2019-03-19T07:11:40.151Z,101185.35
2019-03-19T07:14:10.026Z,101183.34
2019-03-19T07:16:39.638Z,101179.05
2019-03-19T07:19:09.519Z,101182.56
2019-03-19T07:21:39.499Z,101176.09
2019-03-19T07:24:09.617Z,101178.50
2019-03-19T07:26:40.545Z,101178.71
2019-03-19T07:29:10.376Z,101178.06
2019-03-19T07:31:40.170Z,101181.19
2019-03-19T07:34:10.024Z,101179.27
2019-03-19T07:36:39.710Z,101182.16
2019-03-19T07:39:10.243Z,101180.65
2019-03-19T07:41:40.230Z,101178.06
2019-03-19T07:44:09.946Z,101180.13
2019-03-19T07:46:39.867Z,101188.80
2019-03-19T07:49:09.757Z,101182.42
2019-03-19T07:51:39.493Z,101185.66
2019-03-19T07:54:09.384Z,101184.67
2019-03-19T07:56:39.152Z,101184.47
2019-03-19T07:59:09.010Z,101190.14
2019-03-19T08:01:38.859Z,101193.45
2019-03-19T08:04:08.780Z,101183.45
2019-03-19T08:06:38.648Z,101192.91
2019-03-19T08:09:09.133Z,101192.59
2019-03-19T08:11:38.960Z,101189.13
2019-03-19T08:14:08.899Z,101180.88
2019-03-19T08:16:38.764Z,101175.16
2019-03-19T08:19:08.431Z,101184.39
2019-03-19T08:21:38.317Z,101183.73
2019-03-19T08:24:08.147Z,101180.22
2019-03-19T08:26:38.047Z,101179.00
2019-03-19T08:29:07.976Z,101183.69
2019-03-19T08:31:37.923Z,101184.92
2019-03-19T08:34:07.769Z,101188.48
2019-03-19T08:37:12.218Z,101188.77
2019-03-19T08:39:53.625Z,101188.87
2019-03-19T08:42:23.471Z,101185.87
2019-03-19T08:44:53.338Z,101189.43
2019-03-19T08:47:34.332Z,101190.16
2019-03-19T08:50:11.249Z,101189.72
2019-03-19T08:52:40.808Z,101180.98
2019-03-19T08:55:10.298Z,101180.36
2019-03-19T08:57:39.802Z,101178.83
2019-03-19T09:00:15.121Z,101171.10
2019-03-19T09:02:44.859Z,101177.95
2019-03-19T09:05:15.040Z,101175.64
2019-03-19T09:07:44.935Z,101179.05
2019-03-19T09:10:15.035Z,101175.80
2019-03-19T09:12:44.953Z,101179.52
2019-03-19T09:15:16.219Z,101181.94
2019-03-19T09:17:45.984Z,101172.92
2019-03-19T09:20:15.902Z,101171.14
2019-03-19T09:22:45.769Z,101167.87
2019-03-19T09:25:15.664Z,101162.64
2019-03-19T09:27:45.584Z,101167.65
2019-03-19T09:30:16.279Z,101159.59
2019-03-19T09:32:46.116Z,101164.82
2019-03-19T09:35:16.367Z,101157.09
2019-03-19T09:37:57.286Z,101158.05
2019-03-19T09:40:19.064Z,101166.56
2019-03-19T09:42:49.393Z,101155.87
2019-03-19T09:45:19.391Z,101153.20
2019-03-19T09:47:49.300Z,101156.94
2019-03-19T09:50:19.375Z,101160.80
2019-03-19T09:52:49.127Z,101160.52
2019-03-19T09:55:18.942Z,101159.58
2019-03-19T09:57:48.702Z,101156.06
2019-03-19T10:00:19.091Z,101158.41
2019-03-19T10:02:49.168Z,101157.70
2019-03-19T10:05:19.039Z,101157.06
2019-03-19T10:07:49.469Z,101165.63
2019-03-19T10:10:24.712Z,101164.47
2019-03-19T10:13:18.720Z,101167.36
2019-03-19T10:15:48.940Z,101164.82
2019-03-19T10:18:18.786Z,101164.97
2019-03-19T10:21:01.101Z,101164.22
2019-03-19T10:23:50.686Z,101157.39
2019-03-19T10:26:22.894Z,101156.42
2019-03-19T10:33:11.227Z,101153.54
2019-03-19T10:36:00.042Z,101155.01
2019-03-19T10:38:46.331Z,101151.22
2019-03-19T10:41:16.295Z,101152.65
2019-03-19T10:43:46.035Z,101148.67
2019-03-19T10:46:15.896Z,101153.97
2019-03-19T10:48:45.686Z,101147.52
2019-03-19T10:51:15.582Z,101148.98
2019-03-19T10:53:45.519Z,101140.17
2019-03-19T10:56:15.409Z,101144.38
2019-03-19T10:58:45.082Z,101141.02
2019-03-19T11:01:19.001Z,101137.07
2019-03-19T11:06:52.549Z,101125.61
2019-03-19T11:09:22.298Z,101120.38
2019-03-19T11:11:52.600Z,101119.31
2019-03-19T11:14:23.654Z,101119.61
2019-03-19T11:16:53.457Z,101112.83
2019-03-19T11:19:23.368Z,101106.02
2019-03-19T11:21:53.131Z,101102.21
2019-03-19T11:24:22.898Z,101103.33
2019-03-19T11:26:52.786Z,101110.09
2019-03-19T11:29:22.713Z,101101.37
2019-03-19T11:31:52.440Z,101103.16
2019-03-19T11:34:22.258Z,101103.56
2019-03-19T11:36:57.860Z,101101.22
2019-03-19T11:39:23.864Z,101097.50
2019-03-19T11:41:53.647Z,101103.31
2019-03-19T11:44:23.601Z,101104.23
2019-03-19T11:46:53.696Z,101106.02
2019-03-19T11:49:23.621Z,101105.40
2019-03-19T11:51:53.699Z,101104.48
2019-03-19T11:54:24.684Z,101106.55
2019-03-19T11:56:54.519Z,101106.39
2019-03-19T11:59:24.293Z,101114.59
2019-03-19T12:01:54.219Z,101110.98
2019-03-19T12:04:23.936Z,101109.02
2019-03-19T12:06:54.988Z,101114.42
2019-03-19T12:09:24.771Z,101111.65
2019-03-19T12:11:54.380Z,101112.06
2019-03-19T12:14:24.276Z,101114.59
2019-03-19T12:16:54.179Z,101114.44
2019-03-19T12:19:24.056Z,101115.80
2019-03-19T12:21:53.976Z,101116.90
2019-03-19T12:24:23.813Z,101112.41
2019-03-19T12:26:53.479Z,101118.72
2019-03-19T12:29:23.343Z,101114.45
2019-03-19T12:31:53.209Z,101111.75
2019-03-19T12:34:23.187Z,101114.45
2019-03-19T12:36:52.941Z,101114.17
2019-03-19T12:39:22.656Z,101111.73
2019-03-19T12:41:52.313Z,101106.47
2019-03-19T12:44:22.178Z,101116.03
2019-03-19T12:46:53.347Z,101111.87
2019-03-19T12:49:23.138Z,101114.22
2019-03-19T12:51:54.100Z,101113.58
2019-03-19T12:54:24.849Z,101102.21
2019-03-19T12:56:54.634Z,101107.70
2019-03-19T12:59:24.457Z,101103.97
2019-03-19T13:01:54.279Z,101098.06
2019-03-19T13:04:24.249Z,101096.63
2019-03-19T13:06:54.159Z,101101.06
2019-03-19T13:09:24.130Z,101103.77
2019-03-19T13:11:53.949Z,101098.78
2019-03-19T13:14:23.890Z,101105.33
2019-03-19T13:16:53.808Z,101103.44
2019-03-19T13:19:24.922Z,101101.42
2019-03-19T13:21:54.759Z,101096.86
2019-03-19T13:24:24.566Z,101095.57
2019-03-19T13:26:54.478Z,101096.95
2019-03-19T13:29:24.621Z,101092.25
2019-03-19T13:31:54.509Z,101081.18
2019-03-19T13:34:24.413Z,101080.52
2019-03-19T13:36:54.197Z,101084.83
2019-03-19T13:39:24.058Z,101088.16
2019-03-19T13:41:55.069Z,101082.13
2019-03-19T13:44:24.831Z,101080.03
2019-03-19T13:46:54.502Z,101079.84
2019-03-19T13:49:24.337Z,101097.98
2019-03-19T13:51:54.399Z,101087.83
2019-03-19T13:54:24.171Z,101082.33
2019-03-19T13:56:54.066Z,101097.84
2019-03-19T13:59:23.827Z,101094.70
2019-03-19T14:01:53.594Z,101092.73
2019-03-19T14:04:23.433Z,101092.52
2019-03-19T14:06:53.497Z,101097.66
2019-03-19T14:09:23.278Z,101102.75
2019-03-19T14:11:54.404Z,101099.80
2019-03-19T14:14:24.202Z,101105.55
2019-03-19T14:16:54.042Z,101107.36
2019-03-19T14:19:24.100Z,101104.30
2019-03-19T14:21:53.879Z,101103.38
2019-03-19T14:24:23.767Z,101098.73
2019-03-19T14:26:53.547Z,101102.30
2019-03-19T14:29:23.288Z,101099.70
2019-03-19T14:31:53.107Z,101098.66
2019-03-19T14:34:22.766Z,101106.66
2019-03-19T14:36:52.473Z,101106.50
2019-03-19T14:39:22.249Z,101106.39
2019-03-19T14:41:52.234Z,101102.50
2019-03-19T14:44:22.093Z,101111.52
2019-03-19T14:46:51.689Z,101116.86
2019-03-19T14:49:21.243Z,101123.14
2019-03-19T14:51:50.730Z,101116.94
2019-03-19T14:54:20.229Z,101117.95
2019-03-19T14:56:49.824Z,101132.48
2019-03-19T14:59:19.307Z,101132.48
2019-03-19T15:01:49.034Z,101131.84
2019-03-19T15:04:19.003Z,101133.16
2019-03-19T15:06:48.771Z,101145.27
2019-03-19T15:09:18.605Z,101146.52
2019-03-19T15:11:48.529Z,101149.36
2019-03-19T15:14:18.308Z,101159.66
2019-03-19T15:16:47.822Z,101150.12
2019-03-19T15:19:17.681Z,101162.11
2019-03-19T15:21:47.674Z,101172.61
2019-03-19T15:24:17.483Z,101171.91
2019-03-19T15:26:47.185Z,101170.10
2019-03-19T15:29:17.170Z,101176.57
2019-03-19T15:31:47.089Z,101178.32
2019-03-19T15:34:16.952Z,101176.45
2019-03-19T15:40:02.451Z,101196.23
2019-03-19T15:42:32.296Z,101183.98
2019-03-19T15:45:02.062Z,101202.11
2019-03-19T15:47:31.773Z,101201.70
2019-03-19T15:50:01.565Z,101202.73
2019-03-19T15:52:31.402Z,101202.39
2019-03-19T15:55:01.014Z,101210.06
2019-03-19T15:57:30.944Z,101213.23
2019-03-19T16:00:00.771Z,101212.51
2019-03-19T16:02:30.685Z,101225.02
2019-03-19T16:05:00.644Z,101224.53
2019-03-19T16:07:30.626Z,101227.91
2019-03-19T16:10:00.413Z,101224.36
2019-03-19T16:12:30.075Z,101236.88
2019-03-19T16:15:01.320Z,101236.25
2019-03-19T16:17:31.082Z,101232.75
2019-03-19T16:20:00.922Z,101240.49
2019-03-19T16:22:32.086Z,101246.45
2019-03-19T16:25:01.763Z,101244.11
2019-03-19T16:27:31.600Z,101246.80
2019-03-19T16:30:01.432Z,101256.77
2019-03-19T16:32:31.435Z,101253.16
2019-03-19T16:35:01.348Z,101260.20
2019-03-19T16:37:31.204Z,101267.52
2019-03-19T16:40:01.178Z,101266.29
2019-03-19T16:42:30.997Z,101276.89
2019-03-19T16:45:00.741Z,101269.60
2019-03-19T16:47:30.607Z,101276.92
2019-03-19T16:50:00.465Z,101268.80
2019-03-19T16:52:30.338Z,101278.36
2019-03-19T16:55:00.256Z,101275.43
2019-03-19T16:57:31.365Z,101280.08
2019-03-19T17:00:01.206Z,101290.34
2019-03-19T17:02:30.812Z,101282.09
2019-03-19T17:05:01.897Z,101284.61
2019-03-19T17:07:31.778Z,101294.70
2019-03-19T17:10:01.405Z,101294.95
2019-03-19T17:12:31.249Z,101294.87
2019-03-19T17:15:01.015Z,101303.00
2019-03-19T17:17:31.040Z,101304.70
2019-03-19T17:20:00.750Z,101308.95
2019-03-19T17:22:30.569Z,101316.71
2019-03-19T17:25:00.528Z,101322.92
2019-03-19T17:27:30.199Z,101320.59
2019-03-19T17:30:00.318Z,101323.12
2019-03-19T17:32:31.483Z,101332.81
2019-03-19T17:35:01.505Z,101335.44
2019-03-19T17:37:31.395Z,101341.20
2019-03-19T17:40:02.468Z,101340.77
2019-03-19T17:42:32.181Z,101341.85
2019-03-19T17:45:01.996Z,101344.16
2019-03-19T17:47:32.018Z,101347.83
2019-03-19T17:50:01.832Z,101349.97
2019-03-19T17:52:31.741Z,101355.32
2019-03-19T17:55:01.660Z,101350.58
2019-03-19T17:57:31.778Z,101354.69
2019-03-19T18:00:01.589Z,101368.20
2019-03-19T18:02:31.340Z,101363.63
2019-03-19T18:05:02.193Z,101371.08
2019-03-19T18:07:32.058Z,101369.78
2019-03-19T18:10:03.124Z,101378.80
2019-03-19T18:12:32.916Z,101386.19
2019-03-19T18:15:02.831Z,101387.66
2019-03-19T18:17:33.965Z,101389.87
2019-03-19T18:20:04.001Z,101395.28
2019-03-19T18:22:33.837Z,101398.11
2019-03-19T18:25:05.080Z,101393.83
2019-03-19T18:27:34.909Z,101398.11
2019-03-19T18:30:05.252Z,101405.05
2019-03-19T18:32:35.611Z,101402.91
2019-03-19T18:35:06.090Z,101404.59
2019-03-19T18:37:36.078Z,101418.17
2019-03-19T18:40:05.974Z,101421.16
2019-03-19T18:42:36.214Z,101425.11
2019-03-19T18:45:06.553Z,101428.22
2019-03-19T18:48:16.098Z,101436.94
2019-03-19T18:50:45.789Z,101442.13
2019-03-19T18:53:15.634Z,101444.78
2019-03-19T18:55:45.570Z,101445.94
2019-03-19T18:58:15.398Z,101439.54
2019-03-19T19:00:45.361Z,101449.91
2019-03-19T19:03:15.160Z,101461.02
2019-03-19T19:05:44.893Z,101466.08
2019-03-19T19:08:14.679Z,101464.75
2019-03-19T19:10:44.429Z,101463.30
2019-03-19T19:13:14.409Z,101468.55
2019-03-19T19:15:44.253Z,101470.54
2019-03-19T19:18:14.051Z,101473.89
2019-03-19T19:20:43.808Z,101468.40
2019-03-19T19:23:13.595Z,101472.50
2019-03-19T19:25:43.517Z,101476.77
2019-03-19T19:28:13.472Z,101471.48
2019-03-19T19:30:43.447Z,101474.92
2019-03-19T19:33:13.258Z,101480.10
2019-03-19T19:35:43.213Z,101483.99
2019-03-19T19:38:12.972Z,101483.99
2019-03-19T19:40:42.881Z,101482.30
2019-03-19T19:43:12.736Z,101485.30
2019-03-19T19:45:42.644Z,101487.48
2019-03-19T19:48:12.554Z,101483.14
2019-03-19T19:50:42.495Z,101489.38
2019-03-19T19:53:12.267Z,101492.16
2019-03-19T19:55:42.133Z,101486.13
2019-03-19T19:58:11.900Z,101491.83
2019-03-19T20:00:41.612Z,101495.86
2019-03-19T20:03:12.616Z,101506.58
2019-03-19T20:05:42.645Z,101508.72
2019-03-19T20:08:12.170Z,101515.56
2019-03-19T20:10:42.110Z,101513.95
2019-03-19T20:13:12.057Z,101516.66
2019-03-19T20:15:42.157Z,101513.02
2019-03-19T20:18:11.946Z,101512.17
2019-03-19T20:20:42.148Z,101517.50
2019-03-19T20:23:11.986Z,101517.84
2019-03-19T20:25:41.813Z,101518.23
2019-03-19T20:28:11.676Z,101521.73
2019-03-19T20:30:41.531Z,101527.45
2019-03-19T20:33:11.490Z,101529.25
2019-03-19T20:35:41.201Z,101532.16
2019-03-19T20:38:11.096Z,101541.91
2019-03-19T20:40:40.987Z,101539.51
2019-03-19T20:43:10.815Z,101541.71
2019-03-19T20:45:40.644Z,101543.91
2019-03-19T20:48:12.915Z,101545.34
2019-03-19T20:50:42.703Z,101549.59
2019-03-19T20:53:12.468Z,101554.72
2019-03-19T20:55:42.525Z,101558.30
2019-03-19T20:58:12.146Z,101561.20
2019-03-19T21:00:41.959Z,101563.34
2019-03-19T21:03:11.795Z,101563.20
2019-03-19T21:05:41.593Z,101563.48
2019-03-19T21:08:11.398Z,101563.20
2019-03-19T21:10:41.294Z,101553.83
2019-03-19T21:13:11.162Z,101557.03
2019-03-19T21:15:40.848Z,101554.92
2019-03-19T21:18:10.733Z,101554.27
2019-03-19T21:20:40.437Z,101551.23
2019-03-19T21:23:10.094Z,101549.54
2019-03-19T21:25:39.938Z,101549.23
2019-03-19T21:28:14.061Z,101546.64
2019-03-19T21:30:41.166Z,101545.34
2019-03-19T21:33:10.901Z,101546.84
2019-03-19T21:35:40.870Z,101547.42
2019-03-19T21:38:10.719Z,101546.18
2019-03-19T21:40:40.526Z,101547.22
2019-03-19T21:43:10.348Z,101542.23
2019-03-19T21:45:40.175Z,101549.34
2019-03-19T21:48:09.999Z,101544.58
2019-03-19T21:50:39.840Z,101546.77
2019-03-19T21:53:09.502Z,101548.56
2019-03-19T21:55:39.478Z,101545.53
2019-03-19T21:58:09.121Z,101548.97
2019-03-19T22:00:38.962Z,101547.95
2019-03-19T22:03:10.119Z,101551.49
2019-03-19T22:05:39.897Z,101552.02
2019-03-19T22:08:09.736Z,101543.22
2019-03-19T22:10:39.586Z,101546.25
2019-03-19T22:13:09.770Z,101549.24
2019-03-19T22:15:39.785Z,101554.67
2019-03-19T22:18:09.594Z,101567.80
2019-03-19T22:20:39.499Z,101566.86
2019-03-19T22:23:09.285Z,101574.73
2019-03-19T22:25:39.357Z,101582.50
2019-03-19T22:28:09.150Z,101581.61
2019-03-19T22:30:38.910Z,101586.34
2019-03-19T22:33:08.701Z,101586.58
2019-03-19T22:35:38.777Z,101588.00
2019-03-19T22:38:08.639Z,101597.42
2019-03-19T22:40:38.444Z,101597.59
2019-03-19T22:43:08.413Z,101603.39
2019-03-19T22:45:38.434Z,101602.09
2019-03-19T22:48:08.174Z,101607.84
2019-03-19T22:50:37.988Z,101608.05
2019-03-19T22:53:07.878Z,101610.90
2019-03-19T22:55:37.846Z,101607.79
2019-03-19T22:58:07.761Z,101611.95
2019-03-19T23:00:42.006Z,101623.36
2019-03-19T23:03:12.145Z,101627.80
2019-03-19T23:05:42.022Z,101627.61
2019-03-19T23:08:11.854Z,101624.63
2019-03-19T23:10:41.731Z,101614.83
2019-03-19T23:13:12.194Z,101619.97
2019-03-19T23:15:42.028Z,101623.34
2019-03-19T23:18:12.019Z,101618.92
2019-03-19T23:20:41.850Z,101612.13
2019-03-19T23:23:11.855Z,101626.91
2019-03-19T23:25:41.713Z,101622.62
2019-03-19T23:28:11.580Z,101618.70
2019-03-19T23:30:41.772Z,101624.06
2019-03-19T23:33:11.659Z,101626.56
2019-03-19T23:35:41.535Z,101629.59
2019-03-19T23:38:11.454Z,101625.95
2019-03-19T23:40:41.520Z,101629.10
2019-03-19T23:43:11.368Z,101622.96
2019-03-19T23:45:41.215Z,101629.09
2019-03-19T23:48:11.145Z,101627.50
2019-03-19T23:50:41.457Z,101633.25
2019-03-19T23:53:11.161Z,101633.89
2019-03-19T23:55:41.176Z,101635.53
2019-03-19T23:58:11.047Z,101630.06
